createdAt,value
2018-05-06T00:04:37.180Z,50.00
2018-05-06T00:09:28.067Z,50.10
2018-05-06T00:14:18.956Z,50.20
2018-05-06T00:19:09.866Z,50.10
2018-05-06T00:24:01.509Z,50.10
2018-05-06T00:28:52.412Z,50.00
2018-05-06T00:33:44.049Z,50.10
2018-05-06T00:38:35.687Z,50.10
2018-05-06T00:43:27.328Z,50.20
2018-05-06T00:48:18.285Z,50.00
2018-05-06T00:53:09.172Z,50.10
2018-05-06T00:58:00.075Z,50.20
2018-05-06T01:02:51.713Z,50.20
2018-05-06T01:07:42.607Z,50.10
2018-05-06T01:12:33.500Z,50.20
2018-05-06T01:17:24.403Z,50.20
2018-05-06T01:22:15.296Z,50.20
2018-05-06T01:27:06.242Z,50.30
2018-05-06T01:31:57.159Z,50.40
2018-05-06T01:36:48.043Z,50.40
2018-05-06T01:41:39.675Z,50.50
2018-05-06T01:46:31.373Z,50.50
2018-05-06T01:51:22.272Z,50.50
2018-05-06T01:56:13.914Z,50.30
2018-05-06T02:01:04.819Z,50.50
2018-05-06T02:05:55.717Z,50.60
2018-05-06T02:10:46.613Z,50.60
2018-05-06T02:15:38.253Z,50.60
2018-05-06T02:20:30.000Z,50.80
2018-05-06T02:25:20.919Z,50.70
2018-05-06T02:30:11.831Z,50.60
2018-05-06T02:35:03.468Z,50.70
2018-05-06T02:39:54.383Z,50.70
2018-05-06T02:44:46.012Z,50.80
2018-05-06T02:49:37.651Z,51.00
2018-05-06T02:54:29.276Z,50.90
2018-05-06T02:59:20.175Z,50.80
2018-05-06T03:04:11.060Z,51.30
2018-05-06T03:09:01.946Z,51.10
2018-05-06T03:13:52.861Z,51.00
2018-05-06T03:18:44.507Z,51.30
2018-05-06T03:23:35.391Z,51.20
2018-05-06T03:28:26.278Z,51.20
2018-05-06T03:33:17.181Z,51.30
2018-05-06T03:38:08.080Z,51.40
2018-05-06T03:42:58.973Z,51.40
2018-05-06T03:47:50.676Z,51.40
2018-05-06T03:52:41.585Z,51.30
2018-05-06T03:57:44.997Z,51.40
2018-05-06T04:02:38.875Z,51.50
2018-05-06T04:07:29.763Z,51.50
2018-05-06T04:12:21.411Z,51.60
2018-05-06T04:17:12.370Z,51.60
2018-05-06T04:22:03.259Z,51.60
2018-05-06T04:26:54.183Z,51.70
2018-05-06T04:31:45.056Z,51.70
2018-05-06T04:36:35.944Z,51.80
2018-05-06T04:41:26.831Z,51.70
2018-05-06T04:46:17.718Z,51.80
2018-05-06T04:51:09.355Z,51.70
2018-05-06T04:56:01.025Z,51.80
2018-05-06T05:00:51.929Z,51.80
2018-05-06T05:05:42.817Z,51.80
2018-05-06T05:10:34.450Z,52.40
2018-05-06T05:15:25.370Z,52.40
2018-05-06T05:20:31.267Z,52.90
2018-05-06T05:25:22.155Z,54.10
2018-05-06T05:30:13.044Z,53.00
2018-05-06T05:35:03.945Z,53.10
2018-05-06T05:39:54.835Z,52.80
2018-05-06T05:44:46.463Z,53.10
2018-05-06T05:49:38.109Z,53.30
2018-05-06T05:54:28.996Z,53.20
2018-05-06T05:59:19.911Z,53.60
2018-05-06T06:04:12.296Z,54.00
2018-05-06T06:09:03.925Z,54.30
2018-05-06T06:13:55.561Z,54.50
2018-05-06T06:18:47.247Z,54.30
2018-05-06T06:23:38.135Z,55.00
2018-05-06T06:28:29.819Z,54.70
2018-05-06T06:33:20.731Z,54.70
2018-05-06T06:38:11.631Z,55.00
2018-05-06T06:43:03.264Z,53.70
2018-05-06T06:47:54.165Z,53.70
2018-05-06T06:52:45.060Z,53.50
2018-05-06T06:57:35.951Z,54.00
2018-05-06T07:02:27.595Z,54.00
2018-05-06T07:07:19.222Z,54.00
2018-05-06T07:12:10.911Z,54.10
2018-05-06T07:17:01.822Z,54.00
2018-05-06T07:21:52.756Z,54.00
2018-05-06T07:26:43.677Z,54.00
2018-05-06T07:31:34.774Z,53.90
2018-05-06T07:36:25.765Z,54.20
2018-05-06T07:41:16.667Z,54.40
2018-05-06T07:46:07.572Z,54.20
2018-05-06T07:50:58.527Z,55.00
2018-05-06T07:55:49.440Z,54.30
2018-05-06T08:00:41.087Z,53.70
2018-05-06T08:05:32.003Z,53.70
2018-05-06T08:10:22.899Z,53.50
2018-05-06T08:15:13.826Z,53.50
2018-05-06T08:20:05.455Z,53.50
2018-05-06T08:24:56.353Z,53.30
2018-05-06T08:29:48.003Z,52.50
2018-05-06T08:34:39.664Z,52.50
2018-05-06T08:39:30.608Z,52.50
2018-05-06T08:44:21.504Z,52.30
2018-05-06T08:49:12.435Z,52.20
2018-05-06T08:54:03.323Z,51.90
2018-05-06T08:58:54.234Z,51.70
2018-05-06T09:03:45.235Z,51.60
2018-05-06T09:08:36.216Z,51.60
2018-05-06T09:13:27.199Z,51.60
2018-05-06T09:18:18.121Z,51.60
2018-05-06T09:23:09.190Z,51.60
2018-05-06T09:28:00.818Z,51.20
2018-05-06T09:32:52.476Z,51.60
2018-05-06T09:37:43.419Z,51.00
2018-05-06T09:42:34.363Z,50.90
2018-05-06T09:47:25.268Z,51.50
2018-05-06T09:52:16.200Z,50.60
2018-05-06T09:57:07.226Z,50.40
2018-05-06T10:01:58.871Z,50.60
2018-05-06T10:06:50.052Z,50.40
2018-05-06T10:11:47.937Z,50.30
2018-05-06T10:16:38.996Z,50.30
2018-05-06T10:21:29.896Z,50.30
2018-05-06T10:26:20.839Z,50.20
2018-05-06T10:31:11.853Z,50.10
2018-05-06T10:36:02.844Z,50.00
2018-05-06T10:41:00.723Z,49.70
2018-05-06T10:45:51.651Z,49.30
2018-05-06T10:50:42.618Z,49.30
2018-05-06T10:55:33.580Z,49.30
2018-05-06T11:00:25.232Z,49.20
2018-05-06T11:05:16.152Z,49.10
2018-05-06T11:10:07.882Z,49.00
2018-05-06T11:14:58.812Z,48.90
2018-05-06T11:19:49.757Z,48.90
2018-05-06T11:24:40.672Z,48.70
2018-05-06T11:29:31.572Z,48.20
2018-05-06T11:34:23.496Z,47.70
2018-05-06T11:39:14.504Z,47.60
2018-05-06T11:44:20.399Z,47.40
2018-05-06T11:49:11.400Z,47.50
2018-05-06T11:54:02.305Z,46.70
2018-05-06T11:58:53.256Z,46.80
2018-05-06T12:03:44.167Z,46.50
2018-05-06T12:08:35.062Z,46.00
2018-05-06T12:13:25.955Z,45.50
2018-05-06T12:18:16.843Z,44.50
2018-05-06T12:23:07.792Z,44.20
2018-05-06T12:27:58.674Z,44.00
2018-05-06T12:32:50.303Z,44.30
2018-05-06T12:37:41.303Z,44.20
2018-05-06T12:42:32.217Z,43.60
2018-05-06T12:47:23.107Z,43.60
2018-05-06T12:52:14.824Z,42.90
2018-05-06T12:57:05.742Z,42.80
2018-05-06T13:01:56.673Z,43.00
2018-05-06T13:06:47.620Z,43.10
2018-05-06T13:11:39.331Z,43.60
2018-05-06T13:16:30.261Z,43.60
2018-05-06T13:21:21.215Z,43.80
2018-05-06T13:26:12.901Z,44.40
2018-05-06T13:31:04.527Z,43.80
2018-05-06T13:35:55.423Z,43.70
2018-05-06T13:40:47.124Z,44.00
2018-05-06T13:45:38.775Z,44.10
2018-05-06T13:50:29.655Z,44.40
2018-05-06T13:55:20.553Z,44.00
2018-05-06T14:00:11.503Z,44.40
2018-05-06T14:05:02.411Z,44.60
2018-05-06T14:09:53.309Z,44.40
2018-05-06T14:14:44.207Z,45.00
2018-05-06T14:19:35.895Z,45.00
2018-05-06T14:24:26.810Z,44.90
2018-05-06T14:29:17.732Z,45.10
2018-05-06T14:34:08.663Z,45.30
2018-05-06T14:38:59.570Z,45.70
2018-05-06T14:43:50.529Z,46.10
2018-05-06T14:48:41.427Z,46.00
2018-05-06T14:53:32.317Z,46.40
2018-05-06T14:58:23.215Z,46.30
2018-05-06T15:03:14.107Z,46.30
2018-05-06T15:08:05.739Z,46.20
2018-05-06T15:12:56.664Z,46.10
2018-05-06T15:17:47.556Z,46.20
2018-05-06T15:22:38.500Z,46.30
2018-05-06T15:27:29.403Z,46.20
2018-05-06T15:32:20.320Z,45.70
2018-05-06T15:37:11.227Z,46.20
2018-05-06T15:42:02.116Z,46.40
2018-05-06T15:46:53.024Z,46.90
2018-05-06T15:51:43.912Z,46.10
2018-05-06T15:56:34.809Z,45.80
2018-05-06T16:01:25.707Z,46.60
2018-05-06T16:06:16.601Z,46.50
2018-05-06T16:11:07.735Z,46.20
2018-05-06T16:15:58.696Z,46.10
2018-05-06T16:20:49.619Z,46.10
2018-05-06T16:25:40.571Z,46.40
2018-05-06T16:30:31.465Z,46.00
2018-05-06T16:35:22.375Z,47.00
2018-05-06T16:40:13.415Z,46.10
2018-05-06T16:45:04.323Z,46.50
2018-05-06T16:49:55.211Z,46.20
2018-05-06T16:54:46.915Z,45.70
2018-05-06T16:59:37.832Z,45.70
2018-05-06T17:04:28.727Z,45.40
2018-05-06T17:09:20.420Z,45.20
2018-05-06T17:14:11.347Z,45.20
2018-05-06T17:19:02.291Z,45.00
2018-05-06T17:23:53.215Z,45.20
2018-05-06T17:28:44.929Z,45.10
2018-05-06T17:33:35.859Z,45.10
2018-05-06T17:38:26.808Z,45.50
2018-05-06T17:43:17.695Z,45.60
2018-05-06T17:48:08.724Z,45.30
2018-05-06T17:53:00.782Z,45.50
2018-05-06T17:57:52.523Z,44.30
2018-05-06T18:02:43.543Z,44.30
2018-05-06T18:07:35.279Z,44.90
2018-05-06T18:12:26.156Z,44.80
2018-05-06T18:17:17.051Z,45.00
2018-05-06T18:22:07.989Z,45.10
2018-05-06T18:26:58.916Z,45.10
2018-05-06T18:31:49.807Z,45.20
2018-05-06T18:36:40.700Z,45.30
2018-05-06T18:41:31.589Z,45.50
2018-05-06T18:46:22.504Z,45.50
2018-05-06T18:51:13.503Z,45.50
2018-05-06T18:56:05.444Z,45.60
2018-05-06T19:00:56.459Z,45.60
2018-05-06T19:05:47.380Z,45.70
2018-05-06T19:10:38.299Z,45.90
2018-05-06T19:15:29.308Z,45.80
2018-05-06T19:20:20.210Z,46.00
2018-05-06T19:25:11.849Z,46.20
2018-05-06T19:30:02.754Z,46.10
2018-05-06T19:34:54.423Z,46.60
2018-05-06T19:39:45.386Z,46.50
2018-05-06T19:44:36.951Z,46.70
2018-05-06T19:49:27.859Z,46.70
2018-05-06T19:54:19.566Z,47.10
2018-05-06T19:59:10.462Z,47.00
2018-05-06T20:04:01.368Z,47.10
2018-05-06T20:08:52.406Z,47.30
2018-05-06T20:13:43.306Z,47.50
2018-05-06T20:18:34.217Z,47.40
2018-05-06T20:23:25.181Z,47.50
2018-05-06T20:28:16.099Z,47.60
2018-05-06T20:33:08.488Z,47.90
2018-05-06T20:37:59.621Z,47.80
2018-05-06T20:42:50.527Z,47.90
2018-05-06T20:47:42.681Z,48.10
2018-05-06T20:52:34.308Z,48.10
2018-05-06T20:57:26.126Z,48.40
2018-05-06T21:02:17.041Z,48.30
2018-05-06T21:07:07.932Z,48.50
2018-05-06T21:11:58.818Z,48.60
2018-05-06T21:16:49.771Z,48.80
2018-05-06T21:21:40.906Z,48.80
2018-05-06T21:26:31.952Z,49.10
2018-05-06T21:31:22.999Z,49.10
2018-05-06T21:36:15.004Z,49.30
2018-05-06T21:41:06.547Z,49.30
2018-05-06T21:45:57.460Z,49.40
2018-05-06T21:50:48.343Z,49.50
2018-05-06T21:55:39.223Z,49.60
2018-05-06T22:00:30.115Z,49.60
2018-05-06T22:05:21.007Z,49.80
2018-05-06T22:10:11.952Z,49.90
2018-05-06T22:15:02.848Z,50.10
2018-05-06T22:19:53.743Z,50.10
2018-05-06T22:24:44.704Z,50.00
2018-05-06T22:29:35.619Z,50.20
2018-05-06T22:34:26.511Z,50.20
2018-05-06T22:39:17.459Z,50.20
2018-05-06T22:44:08.359Z,50.40
2018-05-06T22:48:59.265Z,50.40
2018-05-06T22:53:50.144Z,50.40
2018-05-06T22:58:41.040Z,50.40
2018-05-06T23:03:31.947Z,51.10
2018-05-06T23:08:22.832Z,50.50
2018-05-06T23:13:13.721Z,50.50
2018-05-06T23:18:05.369Z,50.70
2018-05-06T23:22:57.000Z,50.70
2018-05-06T23:27:48.628Z,50.70
2018-05-06T23:32:39.511Z,50.70
2018-05-06T23:37:30.395Z,50.70
2018-05-06T23:42:21.287Z,50.90
2018-05-06T23:47:12.929Z,51.00
2018-05-06T23:52:04.598Z,50.90
2018-05-06T23:56:55.471Z,50.90
